sensor_id;sensor_type;location;lat;lon;timestamp;pressure;altitude;pressure_sealevel;temperature;humidity
42633;BME280;28261;53.304;-6.284;2023-12-14T00:00:37;100980.34;;;6.97;100.00
42633;BME280;28261;53.304;-6.284;2023-12-14T00:02:41;100976.69;;;7.00;100.00
42633;BME280;28261;53.304;-6.284;2023-12-14T00:04:44;100967.03;;;7.00;100.00
42633;BME280;28261;53.304;-6.284;2023-12-14T00:06:48;100979.28;;;7.01;100.00
42633;BME280;28261;53.304;-6.284;2023-12-14T00:08:52;100974.84;;;7.02;100.00
42633;BME280;28261;53.304;-6.284;2023-12-14T00:10:56;100969.50;;;7.03;100.00
42633;BME280;28261;53.304;-6.284;2023-12-14T00:13:00;100965.06;;;7.04;100.00
42633;BME280;28261;53.304;-6.284;2023-12-14T00:15:05;100976.41;;;7.06;100.00
42633;BME280;28261;53.304;-6.284;2023-12-14T00:17:09;100969.28;;;7.08;100.00
42633;BME280;28261;53.304;-6.284;2023-12-14T00:19:15;100973.53;;;7.10;100.00
42633;BME280;28261;53.304;-6.284;2023-12-14T00:21:19;100961.22;;;7.11;100.00
42633;BME280;28261;53.304;-6.284;2023-12-14T00:23:23;100967.28;;;7.13;100.00
42633;BME280;28261;53.304;-6.284;2023-12-14T00:25:27;100963.72;;;7.14;100.00
42633;BME280;28261;53.304;-6.284;2023-12-14T00:27:31;100958.34;;;7.16;100.00
42633;BME280;28261;53.304;-6.284;2023-12-14T00:29:34;100965.34;;;7.17;100.00
42633;BME280;28261;53.304;-6.284;2023-12-14T00:31:37;100956.66;;;7.15;100.00
42633;BME280;28261;53.304;-6.284;2023-12-14T00:33:41;100952.31;;;7.14;100.00
42633;BME280;28261;53.304;-6.284;2023-12-14T00:35:47;100949.69;;;7.14;100.00
42633;BME280;28261;53.304;-6.284;2023-12-14T00:37:50;100939.16;;;7.14;100.00
42633;BME280;28261;53.304;-6.284;2023-12-14T00:39:54;100931.28;;;7.12;100.00
42633;BME280;28261;53.304;-6.284;2023-12-14T00:41:58;100942.69;;;7.13;100.00
42633;BME280;28261;53.304;-6.284;2023-12-14T00:44:02;100946.25;;;7.11;100.00
42633;BME280;28261;53.304;-6.284;2023-12-14T00:46:07;100931.28;;;7.12;100.00
42633;BME280;28261;53.304;-6.284;2023-12-14T00:48:11;100940.91;;;7.13;100.00
42633;BME280;28261;53.304;-6.284;2023-12-14T00:50:14;100943.63;;;7.11;100.00
42633;BME280;28261;53.304;-6.284;2023-12-14T00:52:20;100940.16;;;7.11;100.00
42633;BME280;28261;53.304;-6.284;2023-12-14T00:54:24;100934.78;;;7.13;100.00
42633;BME280;28261;53.304;-6.284;2023-12-14T00:56:27;100935.63;;;7.13;100.00
42633;BME280;28261;53.304;-6.284;2023-12-14T00:58:31;100932.91;;;7.15;100.00
42633;BME280;28261;53.304;-6.284;2023-12-14T01:00:35;100927.56;;;7.16;100.00
42633;BME280;28261;53.304;-6.284;2023-12-14T01:02:39;100937.09;;;7.19;100.00
42633;BME280;28261;53.304;-6.284;2023-12-14T01:04:42;100934.47;;;7.19;100.00
42633;BME280;28261;53.304;-6.284;2023-12-14T01:06:46;100943.25;;;7.19;100.00
42633;BME280;28261;53.304;-6.284;2023-12-14T01:08:51;100945.81;;;7.21;100.00
42633;BME280;28261;53.304;-6.284;2023-12-14T01:10:56;100938.81;;;7.20;100.00
42633;BME280;28261;53.304;-6.284;2023-12-14T01:12:59;100940.53;;;7.21;100.00
42633;BME280;28261;53.304;-6.284;2023-12-14T01:15:05;100942.25;;;7.22;100.00
42633;BME280;28261;53.304;-6.284;2023-12-14T01:17:09;100932.56;;;7.22;100.00
42633;BME280;28261;53.304;-6.284;2023-12-14T01:19:13;100932.56;;;7.22;100.00
42633;BME280;28261;53.304;-6.284;2023-12-14T01:21:17;100922.84;;;7.23;100.00
42633;BME280;28261;53.304;-6.284;2023-12-14T01:23:21;100921.91;;;7.24;100.00
42633;BME280;28261;53.304;-6.284;2023-12-14T01:25:26;100909.56;;;7.24;100.00
42633;BME280;28261;53.304;-6.284;2023-12-14T01:27:30;100907.03;;;7.23;100.00
42633;BME280;28261;53.304;-6.284;2023-12-14T01:29:34;100914.94;;;7.23;100.00
42633;BME280;28261;53.304;-6.284;2023-12-14T01:31:37;100907.97;;;7.22;100.00
42633;BME280;28261;53.304;-6.284;2023-12-14T01:33:42;100902.75;;;7.20;100.00
42633;BME280;28261;53.304;-6.284;2023-12-14T01:35:48;100904.38;;;7.23;100.00
42633;BME280;28261;53.304;-6.284;2023-12-14T01:37:51;100909.66;;;7.23;100.00
42633;BME280;28261;53.304;-6.284;2023-12-14T01:39:54;100921.91;;;7.24;100.00
42633;BME280;28261;53.304;-6.284;2023-12-14T01:42:00;100909.56;;;7.24;100.00
42633;BME280;28261;53.304;-6.284;2023-12-14T01:44:03;100908.75;;;7.24;100.00
42633;BME280;28261;53.304;-6.284;2023-12-14T01:46:07;100915.72;;;7.25;100.00
42633;BME280;28261;53.304;-6.284;2023-12-14T01:48:11;100923.63;;;7.25;100.00
42633;BME280;28261;53.304;-6.284;2023-12-14T01:50:15;100916.56;;;7.25;100.00
42633;BME280;28261;53.304;-6.284;2023-12-14T01:52:20;100923.56;;;7.26;100.00
42633;BME280;28261;53.304;-6.284;2023-12-14T01:54:23;100928.91;;;7.25;100.00
42633;BME280;28261;53.304;-6.284;2023-12-14T01:56:27;100923.56;;;7.26;100.00
42633;BME280;28261;53.304;-6.284;2023-12-14T01:58:32;100930.63;;;7.26;100.00
42633;BME280;28261;53.304;-6.284;2023-12-14T02:00:40;100925.41;;;7.24;100.00
42633;BME280;28261;53.304;-6.284;2023-12-14T02:02:46;100914.84;;;7.24;100.00
42633;BME280;28261;53.304;-6.284;2023-12-14T02:04:50;100915.88;;;7.22;100.00
42633;BME280;28261;53.304;-6.284;2023-12-14T02:06:54;100914.94;;;7.23;100.00
42633;BME280;28261;53.304;-6.284;2023-12-14T02:08:58;100915.00;;;7.21;100.00
42633;BME280;28261;53.304;-6.284;2023-12-14T02:11:01;100923.00;;;7.20;100.00
42633;BME280;28261;53.304;-6.284;2023-12-14T02:13:04;100915.94;;;7.20;100.00
42633;BME280;28261;53.304;-6.284;2023-12-14T02:15:11;100934.41;;;7.20;100.00
42633;BME280;28261;53.304;-6.284;2023-12-14T02:17:14;100922.00;;;7.22;100.00
42633;BME280;28261;53.304;-6.284;2023-12-14T02:19:18;100939.63;;;7.22;100.00
42633;BME280;28261;53.304;-6.284;2023-12-14T02:21:22;100933.38;;;7.23;100.00
42633;BME280;28261;53.304;-6.284;2023-12-14T02:23:27;100934.25;;;7.23;100.00
42633;BME280;28261;53.304;-6.284;2023-12-14T02:25:32;100927.19;;;7.24;100.00
42633;BME280;28261;53.304;-6.284;2023-12-14T02:27:36;100919.44;;;7.21;100.00
42633;BME280;28261;53.304;-6.284;2023-12-14T02:29:38;100935.25;;;7.21;100.00
42633;BME280;28261;53.304;-6.284;2023-12-14T02:31:42;100935.44;;;7.18;100.00
42633;BME280;28261;53.304;-6.284;2023-12-14T02:33:45;100935.47;;;7.16;100.00
42633;BME280;28261;53.304;-6.284;2023-12-14T02:35:49;100946.09;;;7.15;100.00
42633;BME280;28261;53.304;-6.284;2023-12-14T02:37:53;100941.78;;;7.14;100.00
42633;BME280;28261;53.304;-6.284;2023-12-14T02:39:59;100929.44;;;7.14;100.00
42633;BME280;28261;53.304;-6.284;2023-12-14T02:42:03;100940.81;;;7.15;100.00
42633;BME280;28261;53.304;-6.284;2023-12-14T02:44:07;100933.88;;;7.14;100.00
42633;BME280;28261;53.304;-6.284;2023-12-14T02:46:11;100939.97;;;7.14;100.00
42633;BME280;28261;53.304;-6.284;2023-12-14T02:48:18;100947.91;;;7.14;100.00
42633;BME280;28261;53.304;-6.284;2023-12-14T02:50:22;100943.47;;;7.15;100.00
42633;BME280;28261;53.304;-6.284;2023-12-14T02:52:26;100939.97;;;7.14;100.00
42633;BME280;28261;53.304;-6.284;2023-12-14T02:54:30;100953.94;;;7.16;100.00
42633;BME280;28261;53.304;-6.284;2023-12-14T02:56:35;100946.91;;;7.17;100.00
42633;BME280;28261;53.304;-6.284;2023-12-14T02:58:39;100944.25;;;7.17;100.00
42633;BME280;28261;53.304;-6.284;2023-12-14T03:00:43;100950.28;;;7.19;100.00
42633;BME280;28261;53.304;-6.284;2023-12-14T03:02:47;100958.06;;;7.22;100.00
42633;BME280;28261;53.304;-6.284;2023-12-14T03:04:51;100942.09;;;7.25;100.00
42633;BME280;28261;53.304;-6.284;2023-12-14T03:06:56;100943.81;;;7.26;100.00
42633;BME280;28261;53.304;-6.284;2023-12-14T03:08:59;100943.66;;;7.29;100.00
42633;BME280;28261;53.304;-6.284;2023-12-14T03:11:03;100940.94;;;7.31;100.00
42633;BME280;28261;53.304;-6.284;2023-12-14T03:13:09;100950.47;;;7.33;100.00
42633;BME280;28261;53.304;-6.284;2023-12-14T03:15:13;100944.19;;;7.36;100.00
42633;BME280;28261;53.304;-6.284;2023-12-14T03:17:21;100950.31;;;7.36;100.00
42633;BME280;28261;53.304;-6.284;2023-12-14T03:19:25;100952.88;;;7.38;100.00
42633;BME280;28261;53.304;-6.284;2023-12-14T03:21:28;100952.78;;;7.39;100.00
42633;BME280;28261;53.304;-6.284;2023-12-14T03:23:32;100950.16;;;7.39;100.00
42633;BME280;28261;53.304;-6.284;2023-12-14T03:25:36;100952.75;;;7.41;100.00
42633;BME280;28261;53.304;-6.284;2023-12-14T03:27:39;100952.75;;;7.41;100.00
42633;BME280;28261;53.304;-6.284;2023-12-14T03:29:44;100943.78;;;7.43;100.00
42633;BME280;28261;53.304;-6.284;2023-12-14T03:31:48;100937.75;;;7.41;100.00
42633;BME280;28261;53.304;-6.284;2023-12-14T03:33:52;100936.91;;;7.41;100.00
42633;BME280;28261;53.304;-6.284;2023-12-14T03:35:56;100937.75;;;7.41;100.00
42633;BME280;28261;53.304;-6.284;2023-12-14T03:38:00;100943.03;;;7.41;100.00
42633;BME280;28261;53.304;-6.284;2023-12-14T03:40:05;100935.03;;;7.43;100.00
42633;BME280;28261;53.304;-6.284;2023-12-14T03:42:09;100939.56;;;7.41;100.00
42633;BME280;28261;53.304;-6.284;2023-12-14T03:44:13;100933.41;;;7.40;100.00
42633;BME280;28261;53.304;-6.284;2023-12-14T03:46:18;100935.19;;;7.40;100.00
42633;BME280;28261;53.304;-6.284;2023-12-14T03:48:22;100932.66;;;7.38;100.00
42633;BME280;28261;53.304;-6.284;2023-12-14T03:50:26;100932.66;;;7.38;100.00
42633;BME280;28261;53.304;-6.284;2023-12-14T03:52:30;100931.00;;;7.36;100.00
42633;BME280;28261;53.304;-6.284;2023-12-14T03:54:34;100928.38;;;7.36;100.00
42633;BME280;28261;53.304;-6.284;2023-12-14T03:56:37;100914.47;;;7.32;100.00
42633;BME280;28261;53.304;-6.284;2023-12-14T03:58:41;100926.81;;;7.32;100.00
42633;BME280;28261;53.304;-6.284;2023-12-14T04:00:45;100925.94;;;7.31;100.00
42633;BME280;28261;53.304;-6.284;2023-12-14T04:02:51;100919.84;;;7.31;100.00
42633;BME280;28261;53.304;-6.284;2023-12-14T04:04:55;100933.03;;;7.31;100.00
42633;BME280;28261;53.304;-6.284;2023-12-14T04:06:58;100934.81;;;7.30;100.00
42633;BME280;28261;53.304;-6.284;2023-12-14T04:09:02;100933.09;;;7.29;100.00
42633;BME280;28261;53.304;-6.284;2023-12-14T04:11:06;100930.38;;;7.31;100.00
42633;BME280;28261;53.304;-6.284;2023-12-14T04:13:10;100932.00;;;7.33;100.00
42633;BME280;28261;53.304;-6.284;2023-12-14T04:15:14;100932.78;;;7.35;100.00
42633;BME280;28261;53.304;-6.284;2023-12-14T04:17:17;100936.13;;;7.39;100.00
42633;BME280;28261;53.304;-6.284;2023-12-14T04:19:23;100934.28;;;7.41;100.00
42633;BME280;28261;53.304;-6.284;2023-12-14T04:21:28;100935.03;;;7.43;100.00
42633;BME280;28261;53.304;-6.284;2023-12-14T04:23:30;100927.91;;;7.45;100.00
42633;BME280;28261;53.304;-6.284;2023-12-14T04:25:34;100930.47;;;7.47;100.00
42633;BME280;28261;53.304;-6.284;2023-12-14T04:27:37;100926.88;;;7.48;100.00
42633;BME280;28261;53.304;-6.284;2023-12-14T04:29:41;100930.31;;;7.50;100.00
42633;BME280;28261;53.304;-6.284;2023-12-14T04:31:45;100932.09;;;7.49;100.00
42633;BME280;28261;53.304;-6.284;2023-12-14T04:33:49;100946.13;;;7.50;100.00
42633;BME280;28261;53.304;-6.284;2023-12-14T04:35:54;100937.31;;;7.51;100.00
42633;BME280;28261;53.304;-6.284;2023-12-14T04:37:58;100941.56;;;7.53;100.00
42633;BME280;28261;53.304;-6.284;2023-12-14T04:40:02;100945.81;;;7.56;100.00
42633;BME280;28261;53.304;-6.284;2023-12-14T04:42:06;100945.66;;;7.59;100.00
42633;BME280;28261;53.304;-6.284;2023-12-14T04:44:10;100947.22;;;7.63;100.00
42633;BME280;28261;53.304;-6.284;2023-12-14T04:46:14;100941.78;;;7.66;100.00
42633;BME280;28261;53.304;-6.284;2023-12-14T04:48:17;100951.41;;;7.67;100.00
42633;BME280;28261;53.304;-6.284;2023-12-14T04:50:21;100946.06;;;7.69;100.00
42633;BME280;28261;53.304;-6.284;2023-12-14T04:52:26;100962.72;;;7.69;100.00
42633;BME280;28261;53.304;-6.284;2023-12-14T04:54:30;100963.50;;;7.71;100.00
42633;BME280;28261;53.304;-6.284;2023-12-14T04:56:34;100975.69;;;7.74;100.00
42633;BME280;28261;53.304;-6.284;2023-12-14T04:58:37;100971.09;;;7.77;100.00
42633;BME280;28261;53.304;-6.284;2023-12-14T05:00:41;100965.69;;;7.81;100.00
42633;BME280;28261;53.304;-6.284;2023-12-14T05:02:49;100977.78;;;7.85;100.00
42633;BME280;28261;53.304;-6.284;2023-12-14T05:04:53;100984.63;;;7.89;100.00
42633;BME280;28261;53.304;-6.284;2023-12-14T05:06:56;100990.66;;;7.91;100.00
42633;BME280;28261;53.304;-6.284;2023-12-14T05:09:01;100993.13;;;7.94;100.00
42633;BME280;28261;53.304;-6.284;2023-12-14T05:11:07;101005.41;;;7.95;100.00
42633;BME280;28261;53.304;-6.284;2023-12-14T05:13:10;101010.53;;;7.98;100.00
42633;BME280;28261;53.304;-6.284;2023-12-14T05:15:14;101003.38;;;8.00;100.00
42633;BME280;28261;53.304;-6.284;2023-12-14T05:17:18;101010.38;;;8.01;100.00
42633;BME280;28261;53.304;-6.284;2023-12-14T05:19:23;101008.50;;;8.03;100.00
42633;BME280;28261;53.304;-6.284;2023-12-14T05:21:26;101002.28;;;8.04;100.00
42633;BME280;28261;53.304;-6.284;2023-12-14T05:23:31;101004.94;;;8.04;100.00
42633;BME280;28261;53.304;-6.284;2023-12-14T05:25:37;101005.09;;;8.01;100.00
42633;BME280;28261;53.304;-6.284;2023-12-14T05:27:41;101007.75;;;8.01;100.00
42633;BME280;28261;53.304;-6.284;2023-12-14T05:29:46;101013.16;;;7.98;100.00
42633;BME280;28261;53.304;-6.284;2023-12-14T05:31:50;101003.63;;;7.95;100.00
42633;BME280;28261;53.304;-6.284;2023-12-14T05:33:54;101008.97;;;7.94;100.00
42633;BME280;28261;53.304;-6.284;2023-12-14T05:35:58;101010.84;;;7.92;100.00
42633;BME280;28261;53.304;-6.284;2023-12-14T05:38:02;101003.84;;;7.91;100.00
42633;BME280;28261;53.304;-6.284;2023-12-14T05:40:07;101013.56;;;7.90;100.00
42633;BME280;28261;53.304;-6.284;2023-12-14T05:42:16;101010.84;;;7.92;100.00
42633;BME280;28261;53.304;-6.284;2023-12-14T05:44:20;101019.53;;;7.94;100.00
42633;BME280;28261;53.304;-6.284;2023-12-14T05:46:24;101017.59;;;7.97;100.00
42633;BME280;28261;53.304;-6.284;2023-12-14T05:48:29;101028.06;;;7.99;100.00
42633;BME280;28261;53.304;-6.284;2023-12-14T05:50:33;101028.88;;;8.01;100.00
42633;BME280;28261;53.304;-6.284;2023-12-14T05:52:37;101040.19;;;8.03;100.00
42633;BME280;28261;53.304;-6.284;2023-12-14T05:54:40;101042.75;;;8.05;100.00
42633;BME280;28261;53.304;-6.284;2023-12-14T05:56:44;101043.63;;;8.05;100.00
42633;BME280;28261;53.304;-6.284;2023-12-14T05:58:50;101044.38;;;8.07;100.00
42633;BME280;28261;53.304;-6.284;2023-12-14T06:00:53;101043.44;;;8.08;100.00
42633;BME280;28261;53.304;-6.284;2023-12-14T06:02:59;101056.66;;;8.08;100.00
42633;BME280;28261;53.304;-6.284;2023-12-14T06:05:04;101053.09;;;8.09;100.00
42633;BME280;28261;53.304;-6.284;2023-12-14T06:07:08;101059.13;;;8.11;100.00
42633;BME280;28261;53.304;-6.284;2023-12-14T06:09:11;101064.41;;;8.11;100.00
42633;BME280;28261;53.304;-6.284;2023-12-14T06:11:15;101071.41;;;8.12;100.00
42633;BME280;28261;53.304;-6.284;2023-12-14T06:13:19;101083.69;;;8.13;100.00
42633;BME280;28261;53.304;-6.284;2023-12-14T06:15:25;101096.00;;;8.13;100.00
42633;BME280;28261;53.304;-6.284;2023-12-14T06:17:29;101095.16;;;8.12;100.00
42633;BME280;28261;53.304;-6.284;2023-12-14T06:19:34;101094.38;;;8.10;100.00
42633;BME280;28261;53.304;-6.284;2023-12-14T06:21:37;101099.81;;;8.07;100.00
42633;BME280;28261;53.304;-6.284;2023-12-14T06:23:41;101102.63;;;8.04;100.00
42633;BME280;28261;53.304;-6.284;2023-12-14T06:25:45;101107.13;;;8.02;100.00
42633;BME280;28261;53.304;-6.284;2023-12-14T06:27:49;101110.06;;;7.96;100.00
42633;BME280;28261;53.304;-6.284;2023-12-14T06:29:53;101112.88;;;7.93;100.00
42633;BME280;28261;53.304;-6.284;2023-12-14T06:31:58;101117.53;;;7.88;100.00
42633;BME280;28261;53.304;-6.284;2023-12-14T06:34:03;101129.09;;;7.85;100.00
42633;BME280;28261;53.304;-6.284;2023-12-14T06:36:08;101135.44;;;7.81;100.00
42633;BME280;28261;53.304;-6.284;2023-12-14T06:38:11;101138.31;;;7.76;100.00
42633;BME280;28261;53.304;-6.284;2023-12-14T06:40:16;101135.81;;;7.73;100.00
42633;BME280;28261;53.304;-6.284;2023-12-14T06:42:21;101143.88;;;7.70;100.00
42633;BME280;28261;53.304;-6.284;2023-12-14T06:44:24;101141.41;;;7.67;100.00
42633;BME280;28261;53.304;-6.284;2023-12-14T06:46:28;101148.53;;;7.65;100.00
42633;BME280;28261;53.304;-6.284;2023-12-14T06:48:34;101143.47;;;7.60;100.00
42633;BME280;28261;53.304;-6.284;2023-12-14T06:50:38;101147.13;;;7.58;100.00
42633;BME280;28261;53.304;-6.284;2023-12-14T06:52:42;101152.47;;;7.56;100.00
42633;BME280;28261;53.304;-6.284;2023-12-14T06:54:47;101148.19;;;7.54;100.00
42633;BME280;28261;53.304;-6.284;2023-12-14T06:56:51;101156.19;;;7.52;100.00
42633;BME280;28261;53.304;-6.284;2023-12-14T06:58:55;101159.81;;;7.50;100.00
42633;BME280;28261;53.304;-6.284;2023-12-14T07:00:58;101162.59;;;7.47;100.00
42633;BME280;28261;53.304;-6.284;2023-12-14T07:03:02;101172.28;;;7.46;100.00
42633;BME280;28261;53.304;-6.284;2023-12-14T07:05:08;101177.72;;;7.43;100.00
42633;BME280;28261;53.304;-6.284;2023-12-14T07:07:12;101174.31;;;7.41;100.00
42633;BME280;28261;53.304;-6.284;2023-12-14T07:09:16;101185.84;;;7.38;100.00
42633;BME280;28261;53.304;-6.284;2023-12-14T07:11:20;101185.03;;;7.36;100.00
42633;BME280;28261;53.304;-6.284;2023-12-14T07:13:24;101186.91;;;7.34;100.00
42633;BME280;28261;53.304;-6.284;2023-12-14T07:15:28;101192.25;;;7.33;100.00
42633;BME280;28261;53.304;-6.284;2023-12-14T07:17:32;101187.84;;;7.33;100.00
42633;BME280;28261;53.304;-6.284;2023-12-14T07:19:36;101194.94;;;7.31;100.00
42633;BME280;28261;53.304;-6.284;2023-12-14T07:21:40;101202.94;;;7.29;100.00
42633;BME280;28261;53.304;-6.284;2023-12-14T07:23:44;101214.47;;;7.27;100.00
42633;BME280;28261;53.304;-6.284;2023-12-14T07:25:47;101223.34;;;7.26;100.00
42633;BME280;28261;53.304;-6.284;2023-12-14T07:27:51;101219.91;;;7.24;100.00
42633;BME280;28261;53.304;-6.284;2023-12-14T07:29:55;101232.31;;;7.22;100.00
42633;BME280;28261;53.304;-6.284;2023-12-14T07:31:58;101230.59;;;7.21;100.00
42633;BME280;28261;53.304;-6.284;2023-12-14T07:34:03;101230.72;;;7.18;100.00
42633;BME280;28261;53.304;-6.284;2023-12-14T07:36:09;101228.94;;;7.18;100.00
42633;BME280;28261;53.304;-6.284;2023-12-14T07:38:16;101229.84;;;7.17;100.00
42633;BME280;28261;53.304;-6.284;2023-12-14T07:40:20;101236.00;;;7.18;100.00
42633;BME280;28261;53.304;-6.284;2023-12-14T07:42:23;101236.00;;;7.18;100.00
42633;BME280;28261;53.304;-6.284;2023-12-14T07:44:27;101244.84;;;7.17;100.00
42633;BME280;28261;53.304;-6.284;2023-12-14T07:46:32;101250.19;;;7.15;100.00
42633;BME280;28261;53.304;-6.284;2023-12-14T07:48:37;101258.09;;;7.15;100.00
42633;BME280;28261;53.304;-6.284;2023-12-14T07:50:41;101255.56;;;7.12;100.00
42633;BME280;28261;53.304;-6.284;2023-12-14T07:52:45;101257.28;;;7.13;100.00
42633;BME280;28261;53.304;-6.284;2023-12-14T07:54:50;101251.25;;;7.11;100.00
42633;BME280;28261;53.304;-6.284;2023-12-14T07:56:54;101257.44;;;7.10;100.00
42633;BME280;28261;53.304;-6.284;2023-12-14T07:58:58;101264.50;;;7.09;100.00
42633;BME280;28261;53.304;-6.284;2023-12-14T08:01:02;101268.88;;;7.09;100.00
42633;BME280;28261;53.304;-6.284;2023-12-14T08:03:06;101273.38;;;7.07;100.00
42633;BME280;28261;53.304;-6.284;2023-12-14T08:05:10;101277.78;;;7.06;100.00
42633;BME280;28261;53.304;-6.284;2023-12-14T08:07:13;101280.56;;;7.03;100.00
42633;BME280;28261;53.304;-6.284;2023-12-14T08:09:16;101279.72;;;7.03;100.00
42633;BME280;28261;53.304;-6.284;2023-12-14T08:11:22;101295.59;;;7.01;100.00
42633;BME280;28261;53.304;-6.284;2023-12-14T08:13:26;101305.28;;;7.01;100.00
42633;BME280;28261;53.304;-6.284;2023-12-14T08:15:30;101304.50;;;6.99;100.00
42633;BME280;28261;53.304;-6.284;2023-12-14T08:17:35;101309.78;;;6.99;100.00
42633;BME280;28261;53.304;-6.284;2023-12-14T08:19:39;101306.25;;;6.98;100.00
42633;BME280;28261;53.304;-6.284;2023-12-14T08:21:43;101308.06;;;6.98;100.00
42633;BME280;28261;53.304;-6.284;2023-12-14T08:23:47;101304.50;;;6.99;100.00
42633;BME280;28261;53.304;-6.284;2023-12-14T08:25:51;101307.06;;;7.00;100.00
42633;BME280;28261;53.304;-6.284;2023-12-14T08:27:57;101309.63;;;7.02;100.00
42633;BME280;28261;53.304;-6.284;2023-12-14T08:30:04;101313.91;;;7.04;100.00
42633;BME280;28261;53.304;-6.284;2023-12-14T08:32:08;101321.69;;;7.07;100.00
42633;BME280;28261;53.304;-6.284;2023-12-14T08:34:12;101318.91;;;7.10;100.00
42633;BME280;28261;53.304;-6.284;2023-12-14T08:36:15;101336.31;;;7.15;100.00
42633;BME280;28261;53.304;-6.284;2023-12-14T08:38:20;101340.47;;;7.20;100.00
42633;BME280;28261;53.304;-6.284;2023-12-14T08:40:24;101339.47;;;7.23;100.00
42633;BME280;28261;53.304;-6.284;2023-12-14T08:42:27;101344.66;;;7.26;100.00
42633;BME280;28261;53.304;-6.284;2023-12-14T08:44:32;101350.63;;;7.29;100.00
42633;BME280;28261;53.304;-6.284;2023-12-14T08:46:40;101345.28;;;7.31;100.00
42633;BME280;28261;53.304;-6.284;2023-12-14T08:48:44;101350.50;;;7.33;100.00
42633;BME280;28261;53.304;-6.284;2023-12-14T08:50:48;101353.06;;;7.34;100.00
42633;BME280;28261;53.304;-6.284;2023-12-14T08:52:51;101356.56;;;7.35;100.00
42633;BME280;28261;53.304;-6.284;2023-12-14T08:54:56;101359.19;;;7.35;100.00
42633;BME280;28261;53.304;-6.284;2023-12-14T08:57:01;101367.03;;;7.36;100.00
42633;BME280;28261;53.304;-6.284;2023-12-14T08:59:07;101368.84;;;7.36;100.00
42633;BME280;28261;53.304;-6.284;2023-12-14T09:01:19;101375.75;;;7.38;100.00
42633;BME280;28261;53.304;-6.284;2023-12-14T09:03:23;101376.59;;;7.39;100.00
42633;BME280;28261;53.304;-6.284;2023-12-14T09:05:29;101385.38;;;7.39;100.00
42633;BME280;28261;53.304;-6.284;2023-12-14T09:07:32;101389.72;;;7.40;100.00
42633;BME280;28261;53.304;-6.284;2023-12-14T09:09:35;101387.97;;;7.41;100.00
42633;BME280;28261;53.304;-6.284;2023-12-14T09:11:39;101392.28;;;7.42;100.00
42633;BME280;28261;53.304;-6.284;2023-12-14T09:13:43;101389.59;;;7.43;100.00
42633;BME280;28261;53.304;-6.284;2023-12-14T09:15:47;101396.59;;;7.44;100.00
42633;BME280;28261;53.304;-6.284;2023-12-14T09:17:56;101399.22;;;7.44;100.00
42633;BME280;28261;53.304;-6.284;2023-12-14T09:19:59;101407.13;;;7.44;100.00
42633;BME280;28261;53.304;-6.284;2023-12-14T09:22:03;101405.38;;;7.45;100.00
42633;BME280;28261;53.304;-6.284;2023-12-14T09:24:07;101420.25;;;7.46;100.00
42633;BME280;28261;53.304;-6.284;2023-12-14T09:26:15;101426.41;;;7.47;100.00
42633;BME280;28261;53.304;-6.284;2023-12-14T09:28:18;101428.09;;;7.48;100.00
42633;BME280;28261;53.304;-6.284;2023-12-14T09:30:22;101436.81;;;7.50;100.00
42633;BME280;28261;53.304;-6.284;2023-12-14T09:32:26;101438.53;;;7.51;100.00
42633;BME280;28261;53.304;-6.284;2023-12-14T09:34:30;101441.13;;;7.52;100.00
42633;BME280;28261;53.304;-6.284;2023-12-14T09:36:34;101442.84;;;7.53;100.00
42633;BME280;28261;53.304;-6.284;2023-12-14T09:38:38;101443.59;;;7.55;100.00
42633;BME280;28261;53.304;-6.284;2023-12-14T09:40:43;101449.69;;;7.57;100.00
42633;BME280;28261;53.304;-6.284;2023-12-14T09:42:47;101451.47;;;7.57;100.00
42633;BME280;28261;53.304;-6.284;2023-12-14T09:44:51;101454.91;;;7.59;100.00
42633;BME280;28261;53.304;-6.284;2023-12-14T09:46:57;101454.00;;;7.60;100.00
42633;BME280;28261;53.304;-6.284;2023-12-14T09:49:02;101447.75;;;7.61;100.00
42633;BME280;28261;53.304;-6.284;2023-12-14T09:51:12;101452.13;;;7.62;100.00
42633;BME280;28261;53.304;-6.284;2023-12-14T09:53:16;101457.25;;;7.65;100.00
42633;BME280;28261;53.304;-6.284;2023-12-14T09:55:21;101459.06;;;7.65;100.00
42633;BME280;28261;53.304;-6.284;2023-12-14T09:57:25;101462.47;;;7.67;100.00
42633;BME280;28261;53.304;-6.284;2023-12-14T09:59:29;101470.28;;;7.70;100.00
42633;BME280;28261;53.304;-6.284;2023-12-14T10:01:31;101463.28;;;7.69;100.00
42633;BME280;28261;53.304;-6.284;2023-12-14T10:03:35;101462.28;;;7.71;100.00
42633;BME280;28261;53.304;-6.284;2023-12-14T10:05:39;101455.16;;;7.73;100.00
42633;BME280;28261;53.304;-6.284;2023-12-14T10:07:46;101469.16;;;7.75;100.00
42633;BME280;28261;53.304;-6.284;2023-12-14T10:09:50;101474.38;;;7.77;100.00
42633;BME280;28261;53.304;-6.284;2023-12-14T10:12:04;101476.09;;;7.78;100.00
42633;BME280;28261;53.304;-6.284;2023-12-14T10:14:18;101475.09;;;7.81;100.00
42633;BME280;28261;53.304;-6.284;2023-12-14T10:16:29;101488.16;;;7.84;100.00
42633;BME280;28261;53.304;-6.284;2023-12-14T10:18:34;101482.88;;;7.84;100.00
42633;BME280;28261;53.304;-6.284;2023-12-14T10:20:37;101488.00;;;7.87;100.00
42633;BME280;28261;53.304;-6.284;2023-12-14T10:22:45;101487.09;;;7.88;100.00
42633;BME280;28261;53.304;-6.284;2023-12-14T10:24:49;101480.75;;;7.92;100.00
42633;BME280;28261;53.304;-6.284;2023-12-14T10:26:53;101492.16;;;7.92;100.00
42633;BME280;28261;53.304;-6.284;2023-12-14T10:28:57;101501.72;;;7.95;100.00
42633;BME280;28261;53.304;-6.284;2023-12-14T10:31:01;101503.47;;;7.96;100.00
42633;BME280;28261;53.304;-6.284;2023-12-14T10:33:07;101501.59;;;7.98;100.00
42633;BME280;28261;53.304;-6.284;2023-12-14T10:35:11;101520.03;;;8.00;100.00
42633;BME280;28261;53.304;-6.284;2023-12-14T10:37:17;101520.88;;;8.00;100.00
42633;BME280;28261;53.304;-6.284;2023-12-14T10:39:23;101530.53;;;8.01;100.00
42633;BME280;28261;53.304;-6.284;2023-12-14T10:41:27;101538.44;;;8.01;100.00